Time;durP1;ratioP1;P1;durP2;ratioP2;P2;SDS_P1;SDS_P2;PMS_P1;PMS_P2;Temp;Humidity;BMP_temperature;BMP_pressure;BME280_temperature;BME280_humidity;BME280_pressure;Samples;Min_cycle;Max_cycle;Signal;HPM_P1;HPM_P2
2023/05/07 00:01:31;;;;;;;23.77;12.82;;;;;;;10.20;100.00;101131.31;5134655;28;20030;-75
2023/05/07 00:04:03;;;;;;;24.13;11.73;;;;;;;10.23;100.00;101142.56;5142714;28;20034;-76
2023/05/07 00:06:33;;;;;;;24.80;12.02;;;;;;;10.28;100.00;101147.66;5139547;28;20026;-74
2023/05/07 00:09:04;;;;;;;21.13;11.13;;;;;;;10.33;100.00;101137.97;5123808;28;20038;-74
2023/05/07 00:11:34;;;;;;;23.23;11.38;;;;;;;10.27;100.00;101145.94;5137502;28;20113;-75
2023/05/07 00:14:05;;;;;;;23.17;11.77;;;;;;;10.30;100.00;101145.84;5139995;28;20026;-76
2023/05/07 00:16:35;;;;;;;23.30;11.73;;;;;;;10.33;100.00;101135.34;5141060;28;20040;-75
2023/05/07 00:19:05;;;;;;;20.40;10.02;;;;;;;10.35;100.00;101136.16;5133344;28;20027;-74
2023/05/07 00:21:36;;;;;;;15.35;8.27;;;;;;;10.32;100.00;101157.16;5136388;28;20025;-74
2023/05/07 00:24:06;;;;;;;18.00;8.57;;;;;;;10.31;100.00;101152.81;5141775;28;20405;-74
2023/05/07 00:26:36;;;;;;;19.95;8.93;;;;;;;10.29;100.00;101155.47;5138149;28;20093;-72
2023/05/07 00:29:07;;;;;;;18.45;8.73;;;;;;;10.37;100.00;101157.88;5136508;28;20412;-74
2023/05/07 00:31:37;;;;;;;14.20;7.43;;;;;;;10.39;100.00;101161.31;5133823;28;20034;-74
2023/05/07 00:34:07;;;;;;;15.50;8.52;;;;;;;10.33;100.00;101164.94;5132565;28;20560;-75
2023/05/07 00:36:38;;;;;;;14.85;7.68;;;;;;;10.30;100.00;101161.53;5114671;28;20138;-75
2023/05/07 00:39:08;;;;;;;16.90;8.20;;;;;;;10.23;100.00;101157.34;5126506;28;20099;-75
2023/05/07 00:41:38;;;;;;;15.73;8.23;;;;;;;10.33;100.00;101156.25;5138399;28;20049;-73
2023/05/07 00:44:09;;;;;;;15.60;8.43;;;;;;;10.27;100.00;101152.03;5135633;28;20026;-75
2023/05/07 00:46:39;;;;;;;16.10;8.30;;;;;;;10.19;100.00;101153.97;5132114;28;20444;-74
2023/05/07 00:49:09;;;;;;;16.60;9.20;;;;;;;10.06;100.00;101136.91;5129748;28;20026;-75
2023/05/07 00:51:40;;;;;;;18.23;8.68;;;;;;;10.02;100.00;101142.22;5133408;28;20046;-74
2023/05/07 00:54:11;;;;;;;16.98;8.90;;;;;;;10.20;100.00;101137.38;5134539;28;20030;-75
2023/05/07 00:56:41;;;;;;;15.27;8.43;;;;;;;10.29;100.00;101133.69;5135048;28;20245;-75
2023/05/07 00:59:11;;;;;;;18.15;8.85;;;;;;;10.25;100.00;101137.28;5131573;28;20644;-75
2023/05/07 01:01:42;;;;;;;15.15;8.15;;;;;;;10.20;100.00;101139.16;5132803;28;20089;-76
2023/05/07 01:04:12;;;;;;;17.13;8.60;;;;;;;10.18;100.00;101135.72;5133179;28;20042;-75
2023/05/07 01:06:44;;;;;;;15.30;8.05;;;;;;;10.28;100.00;101142.41;5134873;28;20023;-74
2023/05/07 01:09:15;;;;;;;16.38;7.75;;;;;;;10.19;100.00;101135.66;5133994;28;20233;-75
2023/05/07 01:11:47;;;;;;;16.25;7.72;;;;;;;10.22;100.00;101137.34;5127978;28;20035;-74
2023/05/07 01:14:18;;;;;;;13.30;6.72;;;;;;;10.22;100.00;101142.59;5135802;28;20030;-74
2023/05/07 01:16:50;;;;;;;13.20;6.35;;;;;;;10.24;100.00;101140.78;5135365;28;20034;-71
2023/05/07 01:19:21;;;;;;;13.13;6.57;;;;;;;10.31;100.00;101137.97;5137026;28;20417;-74
2023/05/07 01:21:56;;;;;;;12.27;6.80;;;;;;;10.34;100.00;101142.28;5131453;28;20311;-75
2023/05/07 01:24:27;;;;;;;;;;;;;;;10.23;100.00;101152.13;5135418;28;20587;-75
2023/05/07 01:26:57;;;;;;;12.57;7.15;;;;;;;10.11;100.00;101149.81;5133386;28;19957;-74
2023/05/07 01:29:28;;;;;;;14.57;7.40;;;;;;;10.09;100.00;101142.03;5137674;28;20026;-75
2023/05/07 01:32:00;;;;;;;15.15;8.20;;;;;;;10.10;100.00;101143.75;5134271;28;20537;-75
2023/05/07 01:34:34;;;;;;;14.88;8.38;;;;;;;10.03;100.00;101133.50;5135257;28;20031;-74
2023/05/07 01:37:04;;;;;;;14.40;8.40;;;;;;;9.99;100.00;101140.50;5141962;28;20026;-73
2023/05/07 01:39:38;;;;;;;14.77;7.65;;;;;;;10.04;100.00;101136.09;5130075;28;20187;-73
2023/05/07 01:42:09;;;;;;;15.77;8.05;;;;;;;9.97;100.00;101144.06;5138280;28;20034;-74
2023/05/07 01:44:39;;;;;;;13.20;7.43;;;;;;;9.94;100.00;101146.72;5139245;28;20511;-75
2023/05/07 01:47:10;;;;;;;13.13;7.00;;;;;;;10.02;100.00;101147.44;5143891;28;20069;-72
2023/05/07 01:49:41;;;;;;;12.07;6.45;;;;;;;9.88;100.00;101141.66;5141550;28;20061;-75
2023/05/07 01:52:12;;;;;;;13.05;7.05;;;;;;;9.88;100.00;101144.25;5146742;28;20484;-74
2023/05/07 01:54:43;;;;;;;13.93;6.13;;;;;;;9.82;100.00;101157.47;5139439;28;20037;-75
2023/05/07 01:57:13;;;;;;;12.40;7.05;;;;;;;9.82;100.00;101147.03;5140356;28;20034;-71
2023/05/07 01:59:43;;;;;;;12.85;6.63;;;;;;;9.95;100.00;101149.31;5139538;28;21025;-76
2023/05/07 02:02:13;;;;;;;12.23;6.95;;;;;;;9.91;100.00;101152.91;5145102;28;20038;-74
2023/05/07 02:04:44;;;;;;;15.63;7.78;;;;;;;9.80;100.00;101164.50;5144540;28;20061;-75
2023/05/07 02:07:14;;;;;;;12.88;6.80;;;;;;;9.82;100.00;101162.69;5142590;28;20061;-74
2023/05/07 02:09:44;;;;;;;11.98;6.30;;;;;;;9.86;100.00;101164.34;5144291;28;20034;-74
2023/05/07 02:12:15;;;;;;;12.23;6.72;;;;;;;9.88;100.00;101159.94;5148526;28;20039;-74
2023/05/07 02:14:45;;;;;;;11.82;6.38;;;;;;;9.95;100.00;101158.88;5149657;28;20057;-76
2023/05/07 02:17:15;;;;;;;14.73;7.45;;;;;;;9.94;100.00;101163.25;5148553;28;20050;-75
2023/05/07 02:19:46;;;;;;;12.93;6.30;;;;;;;10.01;100.00;101163.97;5145476;28;20210;-75
2023/05/07 02:22:16;;;;;;;12.88;6.60;;;;;;;9.86;100.00;101166.94;5149018;28;20093;-74
2023/05/07 02:24:46;;;;;;;13.38;6.97;;;;;;;9.90;100.00;101151.19;5145257;28;20393;-74
2023/05/07 02:27:16;;;;;;;12.18;5.90;;;;;;;9.85;100.00;101158.25;5148019;28;20296;-75
2023/05/07 02:29:47;;;;;;;13.88;6.70;;;;;;;9.87;100.00;101163.44;5147620;28;20084;-75
2023/05/07 02:32:17;;;;;;;10.25;6.03;;;;;;;9.92;100.00;101164.19;5151608;28;20114;-76
2023/05/07 02:34:50;;;;;;;15.45;6.50;;;;;;;9.93;100.00;101161.53;5145741;28;20066;-73
2023/05/07 02:37:20;;;;;;;12.73;6.22;;;;;;;9.89;100.00;101161.66;5146087;28;20508;-74
2023/05/07 02:39:50;;;;;;;14.48;6.05;;;;;;;9.84;100.00;101172.19;5147095;28;20071;-73
2023/05/07 02:42:21;;;;;;;9.45;5.47;;;;;;;9.81;100.00;101167.03;5145371;28;20441;-74
2023/05/07 02:44:51;;;;;;;12.23;6.38;;;;;;;9.82;100.00;101173.13;5131086;28;20027;-74
2023/05/07 02:47:22;;;;;;;11.93;5.82;;;;;;;9.75;100.00;101174.16;5145949;28;20022;-74
2023/05/07 02:49:53;;;;;;;10.00;5.70;;;;;;;9.73;100.00;101174.22;5144426;28;20062;-76
2023/05/07 02:52:24;;;;;;;12.25;6.45;;;;;;;9.75;100.00;101176.75;5150452;28;20045;-74
2023/05/07 02:54:54;;;;;;;11.02;5.82;;;;;;;9.80;100.00;101182.75;5219932;23;20050;-71
2023/05/07 02:57:24;;;;;;;10.57;5.90;;;;;;;9.78;100.00;101187.13;5145732;28;20050;-72
2023/05/07 02:59:55;;;;;;;10.30;5.78;;;;;;;9.84;100.00;101184.41;5148620;28;20306;-72
2023/05/07 03:02:25;;;;;;;12.13;6.68;;;;;;;9.78;100.00;101181.91;5143036;28;20426;-73
2023/05/07 03:04:55;;;;;;;11.75;6.22;;;;;;;9.82;100.00;101189.63;5145364;28;20078;-72
2023/05/07 03:07:25;;;;;;;11.70;6.43;;;;;;;9.84;100.00;101192.22;5150181;28;20086;-73
2023/05/07 03:09:56;;;;;;;13.35;6.55;;;;;;;9.86;100.00;101190.44;5144806;28;20038;-71
2023/05/07 03:12:26;;;;;;;11.65;6.78;;;;;;;9.90;100.00;101179.03;5145112;28;20031;-73
2023/05/07 03:14:56;;;;;;;16.55;6.82;;;;;;;9.77;100.00;101177.59;5145880;28;20042;-72
2023/05/07 03:17:27;;;;;;;11.68;6.35;;;;;;;9.69;100.00;101176.91;5145508;28;20054;-72
2023/05/07 03:19:57;;;;;;;15.52;6.47;;;;;;;9.70;100.00;101166.44;5142798;28;20038;-72
2023/05/07 03:22:27;;;;;;;12.23;6.35;;;;;;;9.75;100.00;101161.97;5147824;28;20026;-71
2023/05/07 03:24:58;;;;;;;12.27;6.22;;;;;;;9.75;100.00;101163.72;5144491;28;20030;-72
2023/05/07 03:27:28;;;;;;;10.07;5.40;;;;;;;9.54;100.00;101158.97;5149185;28;20034;-73
2023/05/07 03:29:59;;;;;;;9.30;5.57;;;;;;;9.53;100.00;101165.09;5151325;28;20078;-74
2023/05/07 03:32:29;;;;;;;12.40;5.93;;;;;;;9.60;100.00;101161.44;5145555;28;20177;-73
2023/05/07 03:35:00;;;;;;;10.38;5.38;;;;;;;9.52;100.00;101164.22;5149558;28;20509;-73
2023/05/07 03:37:30;;;;;;;9.32;4.50;;;;;;;9.54;100.00;101164.19;5148560;28;20037;-72
2023/05/07 03:40:00;;;;;;;9.35;5.30;;;;;;;9.55;100.00;101164.19;5145061;28;20022;-73
2023/05/07 03:42:31;;;;;;;9.57;4.95;;;;;;;9.45;100.00;101156.59;5146239;28;20400;-72
2023/05/07 03:45:01;;;;;;;8.70;4.90;;;;;;;9.60;100.00;101164.94;5146958;28;20026;-73
2023/05/07 03:47:32;;;;;;;8.07;4.90;;;;;;;9.52;100.00;101166.00;5147008;28;20097;-71
2023/05/07 03:50:02;;;;;;;8.70;4.60;;;;;;;9.60;100.00;101172.75;5148559;28;20028;-73
2023/05/07 03:52:32;;;;;;;8.23;4.97;;;;;;;9.49;100.00;101172.13;5151320;28;20026;-72
2023/05/07 03:55:03;;;;;;;7.93;4.85;;;;;;;9.54;100.00;101169.41;5148781;28;20033;-73
2023/05/07 03:57:33;;;;;;;8.50;4.80;;;;;;;9.69;100.00;101176.91;5144062;28;20030;-73
2023/05/07 04:00:05;;;;;;;7.88;4.75;;;;;;;9.71;100.00;101181.22;5147557;28;20026;-73
2023/05/07 04:02:35;;;;;;;9.27;4.88;;;;;;;9.70;100.00;101174.28;5142329;28;20030;-73
2023/05/07 04:05:06;;;;;;;6.72;4.57;;;;;;;9.67;100.00;101181.31;5145604;28;20172;-73
2023/05/07 04:07:36;;;;;;;9.10;4.65;;;;;;;9.49;100.00;101176.50;5136367;28;20026;-73
2023/05/07 04:10:07;;;;;;;7.38;4.70;;;;;;;9.39;100.00;101180.19;5139213;28;20031;-73
2023/05/07 04:12:37;;;;;;;9.15;5.18;;;;;;;9.39;100.00;101181.06;5139563;28;20512;-72
2023/05/07 04:15:08;;;;;;;9.02;5.22;;;;;;;9.44;100.00;101173.97;5142027;28;20041;-72
2023/05/07 04:17:38;;;;;;;7.93;4.90;;;;;;;9.50;100.00;101171.22;5145353;28;20073;-73
2023/05/07 04:20:10;;;;;;;7.93;4.65;;;;;;;9.42;100.00;101180.09;5149906;28;20451;-73
2023/05/07 04:22:41;;;;;;;9.20;5.30;;;;;;;9.49;100.00;101184.31;5148439;28;20069;-71
2023/05/07 04:25:11;;;;;;;8.10;5.38;;;;;;;9.47;100.00;101191.31;5147041;28;20568;-71
2023/05/07 04:27:41;;;;;;;8.68;5.13;;;;;;;9.56;100.00;101189.38;5148315;28;20037;-71
2023/05/07 04:30:12;;;;;;;9.43;5.57;;;;;;;9.53;100.00;101196.41;5149422;28;20068;-71
2023/05/07 04:32:44;;;;;;;8.73;5.32;;;;;;;9.54;100.00;101204.22;5147053;28;20089;-72
2023/05/07 04:35:14;;;;;;;8.68;5.30;;;;;;;9.37;100.00;101200.22;5145653;28;20036;-73
2023/05/07 04:37:44;;;;;;;9.02;5.68;;;;;;;9.54;100.00;101198.13;5145421;28;20604;-72
2023/05/07 04:40:15;;;;;;;10.05;5.82;;;;;;;9.51;100.00;101198.19;5140915;28;20070;-72
2023/05/07 04:42:46;;;;;;;8.32;5.10;;;;;;;9.56;100.00;101202.44;5147685;28;20496;-73
2023/05/07 04:45:16;;;;;;;9.25;5.32;;;;;;;9.40;100.00;101207.97;5139033;28;20022;-72
2023/05/07 04:47:46;;;;;;;9.95;5.88;;;;;;;9.57;100.00;101208.47;5145971;28;20073;-73
2023/05/07 04:50:18;;;;;;;8.13;5.03;;;;;;;9.58;100.00;101211.06;5145387;28;20032;-73
2023/05/07 04:52:49;;;;;;;7.82;4.68;;;;;;;9.55;100.00;101205.06;5145995;28;20040;-72
2023/05/07 04:55:19;;;;;;;9.25;5.13;;;;;;;9.75;100.00;101214.19;5107053;28;1107971;-73
2023/05/07 04:57:50;;;;;;;7.68;4.82;;;;;;;9.89;100.00;101211.25;5139475;28;20030;-73
2023/05/07 05:00:20;;;;;;;7.93;4.72;;;;;;;9.87;100.00;101213.91;5147412;28;20105;-71
2023/05/07 05:02:51;;;;;;;7.35;4.55;;;;;;;9.88;100.00;101220.84;5148445;28;20030;-72
2023/05/07 05:05:21;;;;;;;7.38;4.70;;;;;;;9.75;100.00;101234.19;5143647;28;20023;-73
2023/05/07 05:07:51;;;;;;;6.60;4.55;;;;;;;9.78;100.00;101228.91;5144470;28;20058;-73
2023/05/07 05:10:22;;;;;;;7.55;4.53;;;;;;;9.86;100.00;101232.22;5145345;28;20029;-71
2023/05/07 05:12:52;;;;;;;7.47;4.68;;;;;;;9.82;100.00;101241.00;5145944;28;20122;-73
2023/05/07 05:15:23;;;;;;;9.60;4.90;;;;;;;9.81;100.00;101236.69;5147643;28;20042;-73
2023/05/07 05:17:53;;;;;;;9.02;5.35;;;;;;;9.87;100.00;101229.56;5147464;28;20577;-73
2023/05/07 05:20:23;;;;;;;8.90;4.93;;;;;;;9.97;100.00;101240.69;5140845;28;20130;-73
2023/05/07 05:22:54;;;;;;;8.55;5.28;;;;;;;9.89;100.00;101237.34;5149130;28;20165;-71
2023/05/07 05:25:24;;;;;;;9.35;5.53;;;;;;;9.82;100.00;101235.78;5149440;28;20027;-72
2023/05/07 05:27:55;;;;;;;10.27;5.95;;;;;;;9.79;100.00;101241.94;5148217;28;20484;-72
2023/05/07 05:30:25;;;;;;;10.25;6.10;;;;;;;9.89;100.00;101232.13;5142122;28;20026;-73
2023/05/07 05:32:55;;;;;;;9.77;5.93;;;;;;;9.86;100.00;101233.06;5142417;28;22042;-72
2023/05/07 05:35:25;;;;;;;10.93;6.25;;;;;;;9.96;100.00;101238.97;5147302;28;20038;-72
2023/05/07 05:37:56;;;;;;;9.85;6.50;;;;;;;9.99;100.00;101234.50;5148593;28;22662;-72
2023/05/07 05:40:26;;;;;;;10.82;6.38;;;;;;;10.06;100.00;101235.25;5149344;28;20523;-73
2023/05/07 05:42:56;;;;;;;10.05;6.18;;;;;;;9.92;100.00;101238.16;5145741;28;20030;-71
2023/05/07 05:45:27;;;;;;;10.68;6.10;;;;;;;9.87;100.00;101241.75;5145531;28;20039;-72
2023/05/07 05:47:57;;;;;;;10.02;6.30;;;;;;;9.88;100.00;101241.75;5143224;28;20089;-73
2023/05/07 05:50:27;;;;;;;11.02;7.03;;;;;;;9.89;100.00;101242.59;5149033;28;20031;-72
2023/05/07 05:52:58;;;;;;;11.00;6.82;;;;;;;10.00;100.00;101251.03;5142588;28;20031;-73
2023/05/07 05:55:28;;;;;;;10.50;6.78;;;;;;;9.90;100.00;101258.22;5148814;28;20065;-71
2023/05/07 05:58:02;;;;;;;10.85;7.00;;;;;;;9.82;100.00;101264.50;5138034;28;20046;-73
2023/05/07 06:00:32;;;;;;;11.38;7.68;;;;;;;9.95;100.00;101250.25;5155093;28;20058;-73
2023/05/07 06:03:03;;;;;;;11.27;6.85;;;;;;;10.12;100.00;101251.66;5137051;28;20059;-70
2023/05/07 06:05:33;;;;;;;13.05;6.75;;;;;;;10.05;100.00;101249.22;5143237;28;20026;-73
2023/05/07 06:08:03;;;;;;;10.00;6.22;;;;;;;10.08;100.00;101249.13;5139962;28;20218;-73
2023/05/07 06:10:36;;;;;;;9.32;5.78;;;;;;;10.28;100.00;101254.75;5140682;28;20093;-73
2023/05/07 06:13:07;;;;;;;10.65;5.93;;;;;;;10.40;100.00;101257.09;5142706;28;20030;-72
2023/05/07 06:15:37;;;;;;;9.95;5.57;;;;;;;10.35;100.00;101258.97;5141514;28;20110;-73
2023/05/07 06:18:08;;;;;;;9.88;5.75;;;;;;;10.31;100.00;101257.31;5139070;28;20117;-71
2023/05/07 06:20:38;;;;;;;8.52;5.85;;;;;;;10.47;100.00;101261.25;5127498;28;20031;-73
2023/05/07 06:23:08;;;;;;;10.40;5.82;;;;;;;10.44;100.00;101254.38;5122241;28;20037;-73
2023/05/07 06:25:38;;;;;;;9.70;5.63;;;;;;;10.52;100.00;101262.03;5133229;28;20134;-73
2023/05/07 06:28:11;;;;;;;7.80;5.00;;;;;;;10.38;100.00;101264.09;5137415;28;20393;-73
2023/05/07 06:30:41;;;;;;;7.78;4.97;;;;;;;10.41;100.00;101259.69;5132361;28;20027;-71
2023/05/07 06:33:11;;;;;;;7.30;4.63;;;;;;;10.30;100.00;101264.28;5133796;28;20041;-72
2023/05/07 06:35:42;;;;;;;7.15;4.72;;;;;;;10.43;100.00;101263.09;5133515;28;20030;-73
2023/05/07 06:38:12;;;;;;;7.57;4.68;;;;;;;10.41;100.00;101261.41;5136091;28;20404;-73
2023/05/07 06:40:42;;;;;;;8.57;4.93;;;;;;;10.43;100.00;101259.63;5132731;28;20397;-73
2023/05/07 06:43:13;;;;;;;6.97;4.13;;;;;;;10.42;100.00;101257.91;5138630;28;20031;-71
2023/05/07 06:45:43;;;;;;;7.20;3.65;;;;;;;10.50;100.00;101258.59;5134231;28;20027;-71
2023/05/07 06:48:13;;;;;;;5.18;3.20;;;;;;;10.33;99.66;101265.97;5135189;28;20035;-71
2023/05/07 06:50:47;;;;;;;5.63;3.50;;;;;;;10.49;99.22;101267.34;5138104;28;20468;-71
2023/05/07 06:53:17;;;;;;;6.13;3.67;;;;;;;10.71;100.00;101263.28;5145333;28;20038;-73
2023/05/07 06:55:48;;;;;;;5.70;3.53;;;;;;;10.83;98.84;101257.75;5140163;28;20608;-72
2023/05/07 06:58:18;;;;;;;6.75;3.97;;;;;;;11.02;99.87;101258.09;5164959;28;20027;-72
2023/05/07 07:00:48;;;;;;;6.28;3.70;;;;;;;10.95;98.99;101258.28;5140024;28;20042;-71
2023/05/07 07:03:20;;;;;;;6.28;3.80;;;;;;;10.75;99.01;101268.41;5140953;28;20484;-73
2023/05/07 07:05:56;;;;;;;6.20;3.42;;;;;;;10.98;98.24;101275.63;5137839;28;20140;-72
2023/05/07 07:08:26;;;;;;;5.47;3.40;;;;;;;10.91;97.89;101267.13;5144499;28;20070;-70
2023/05/07 07:10:57;;;;;;;6.38;3.78;;;;;;;10.93;99.05;101269.69;5132706;28;20125;-72
2023/05/07 07:13:28;;;;;;;7.35;4.07;;;;;;;10.92;99.05;101268.84;5145936;28;20097;-72
2023/05/07 07:16:00;;;;;;;7.72;4.13;;;;;;;10.84;99.31;101275.16;5144256;28;20038;-70
2023/05/07 07:18:30;;;;;;;8.10;4.90;;;;;;;10.76;100.00;101275.34;5130718;28;20019;-72
2023/05/07 07:21:00;;;;;;;8.23;4.70;;;;;;;10.72;100.00;101280.69;5138617;28;20026;-72
2023/05/07 07:23:31;;;;;;;8.50;5.25;;;;;;;10.70;100.00;101278.09;5140413;28;20444;-71
2023/05/07 07:26:01;;;;;;;9.82;5.40;;;;;;;10.62;100.00;101287.03;5146382;28;20034;-72
2023/05/07 07:28:31;;;;;;;8.20;4.25;;;;;;;10.57;100.00;101294.13;5145180;28;20077;-72
2023/05/07 07:31:02;;;;;;;8.27;4.72;;;;;;;10.62;100.00;101293.13;5145459;28;20476;-71
2023/05/07 07:33:32;;;;;;;7.13;4.40;;;;;;;10.70;100.00;101285.09;5154345;28;20339;-72
2023/05/07 07:36:03;;;;;;;8.00;5.18;;;;;;;10.66;100.00;101294.75;5142463;28;20043;-72
2023/05/07 07:38:34;;;;;;;8.68;4.70;;;;;;;10.53;100.00;101285.50;5147102;28;20408;-72
2023/05/07 07:41:05;;;;;;;8.85;4.85;;;;;;;10.55;100.00;101299.38;5155325;28;20031;-72
2023/05/07 07:43:35;;;;;;;7.78;4.57;;;;;;;10.53;100.00;101293.34;5145757;28;20073;-69
2023/05/07 07:46:06;;;;;;;8.50;4.68;;;;;;;10.53;100.00;101292.50;5129839;28;20070;-72
2023/05/07 07:48:36;;;;;;;9.23;4.70;;;;;;;10.64;100.00;101300.91;5124910;28;20038;-71
2023/05/07 07:51:06;;;;;;;9.18;4.90;;;;;;;10.68;100.00;101294.75;5124331;28;20607;-71
2023/05/07 07:53:37;;;;;;;8.45;4.55;;;;;;;10.66;100.00;101301.75;5138131;28;20045;-70
2023/05/07 07:56:07;;;;;;;9.13;4.93;;;;;;;10.67;100.00;101291.25;5129988;28;20647;-72
2023/05/07 07:58:43;;;;;;;8.63;4.95;;;;;;;10.74;100.00;101299.81;5132793;28;20029;-71
2023/05/07 08:01:13;;;;;;;10.48;5.60;;;;;;;10.86;100.00;101309.97;5127370;28;20037;-72
2023/05/07 08:03:44;;;;;;;8.00;4.85;;;;;;;10.78;100.00;101301.44;5134809;28;20041;-73
2023/05/07 08:06:15;;;;;;;10.13;4.85;;;;;;;10.66;100.00;101314.84;5135180;28;20035;-71
2023/05/07 08:08:45;;;;;;;9.13;5.65;;;;;;;10.68;100.00;101310.44;5144699;28;20531;-73
2023/05/07 08:11:15;;;;;;;10.65;5.30;;;;;;;10.82;100.00;101301.34;5146556;28;20470;-72
2023/05/07 08:13:46;;;;;;;10.43;6.40;;;;;;;10.73;100.00;101298.09;5157212;28;20061;-70
2023/05/07 08:16:16;;;;;;;13.77;6.40;;;;;;;10.85;100.00;101303.03;5143606;28;20030;-71
2023/05/07 08:18:46;;;;;;;11.02;6.55;;;;;;;10.84;100.00;101301.31;5137900;28;20019;-72
2023/05/07 08:21:17;;;;;;;11.27;6.78;;;;;;;11.02;100.00;101306.06;5136424;28;20043;-73
2023/05/07 08:23:47;;;;;;;10.65;6.22;;;;;;;11.19;100.00;101300.34;5130744;28;20043;-71
2023/05/07 08:26:17;;;;;;;10.65;6.57;;;;;;;11.05;100.00;101298.97;5124122;28;20514;-71
2023/05/07 08:28:48;;;;;;;11.68;6.53;;;;;;;11.04;100.00;101306.00;5122916;28;20662;-71
2023/05/07 08:31:18;;;;;;;10.00;6.18;;;;;;;10.96;100.00;101301.84;5137475;28;20321;-73
2023/05/07 08:33:49;;;;;;;11.43;6.22;;;;;;;10.86;100.00;101315.19;5136073;28;20047;-71
2023/05/07 08:36:20;;;;;;;11.18;6.60;;;;;;;10.82;100.00;101313.56;5133247;28;20117;-72
2023/05/07 08:38:50;;;;;;;10.52;6.13;;;;;;;10.81;100.00;101309.19;5129827;28;20131;-73
2023/05/07 08:41:21;;;;;;;10.20;5.97;;;;;;;10.86;100.00;101309.97;5130638;28;20211;-73
2023/05/07 08:43:51;;;;;;;11.60;6.47;;;;;;;11.04;100.00;101297.25;5126624;28;20420;-72
2023/05/07 08:46:22;;;;;;;9.52;5.90;;;;;;;10.99;100.00;101307.00;5133923;28;20030;-73
2023/05/07 08:48:52;;;;;;;11.15;5.60;;;;;;;11.19;100.00;101316.06;5122257;28;20476;-72
2023/05/07 08:51:22;;;;;;;9.27;5.60;;;;;;;11.45;99.85;101313.59;5137564;28;20034;-73
2023/05/07 08:56:26;;;;;;;8.57;5.38;;;;;;;11.68;98.23;101313.84;5143322;28;20145;-72
2023/05/07 08:58:58;;;;;;;10.05;5.50;;;;;;;11.69;95.80;101312.97;5135550;28;20032;-71
2023/05/07 09:01:28;;;;;;;7.85;5.18;;;;;;;11.52;98.11;101320.38;5139934;28;20057;-73
2023/05/07 09:03:59;;;;;;;8.68;5.43;;;;;;;11.85;97.67;101310.75;5139227;28;20030;-71
2023/05/07 09:06:30;;;;;;;8.80;5.15;;;;;;;11.52;97.42;101317.78;5137958;28;20038;-72
2023/05/07 09:09:01;;;;;;;8.18;5.03;;;;;;;11.81;97.47;101316.97;5133714;28;20023;-70
2023/05/07 09:11:31;;;;;;;8.45;4.88;;;;;;;11.38;97.88;101321.66;5161375;28;20055;-73
2023/05/07 09:14:02;;;;;;;11.07;6.05;;;;;;;11.82;100.00;101313.47;5146898;28;20516;-72
2023/05/07 09:16:32;;;;;;;8.77;5.20;;;;;;;11.70;97.82;101319.03;5144272;28;20085;-73
2023/05/07 09:19:03;;;;;;;8.15;4.50;;;;;;;11.76;98.49;101324.97;5139454;28;20415;-71
2023/05/07 09:21:33;;;;;;;8.07;4.68;;;;;;;11.70;98.50;101319.91;5140581;28;20043;-72
2023/05/07 09:24:03;;;;;;;7.55;4.68;;;;;;;11.83;96.93;101316.06;5156050;28;20078;-71
2023/05/07 09:26:34;;;;;;;7.68;4.97;;;;;;;11.68;97.67;101326.94;5143354;28;20046;-73
2023/05/07 09:29:05;;;;;;;8.13;4.70;;;;;;;11.84;98.56;101316.88;5139821;28;20611;-71
2023/05/07 09:31:38;;;;;;;6.63;4.20;;;;;;;11.87;97.35;101320.28;5144038;28;20046;-70
2023/05/07 09:34:09;;;;;;;7.32;4.20;;;;;;;12.15;94.86;101317.72;5142058;28;20468;-73
2023/05/07 09:36:39;;;;;;;6.70;4.15;;;;;;;12.41;94.89;101308.13;5138289;28;20117;-71
2023/05/07 09:39:10;;;;;;;7.18;4.20;;;;;;;12.66;92.52;101310.84;5143575;28;20434;-72
2023/05/07 09:41:45;;;;;;;7.93;4.57;;;;;;;12.53;92.40;101314.75;5138925;28;20080;-71
2023/05/07 09:44:15;;;;;;;8.15;4.60;;;;;;;12.83;93.70;101317.25;5146203;28;20413;-74
2023/05/07 09:46:49;;;;;;;7.05;4.20;;;;;;;13.04;89.89;101316.59;5149183;28;20351;-71
2023/05/07 09:49:22;;;;;;;7.25;4.22;;;;;;;13.12;89.04;101318.03;5143674;28;20065;-71
2023/05/07 09:51:52;;;;;;;6.03;4.00;;;;;;;13.53;89.03;101319.19;5138664;28;20585;-70
2023/05/07 09:54:23;;;;;;;8.32;3.83;;;;;;;13.40;87.58;101331.06;5136923;28;20035;-69
2023/05/07 09:56:54;;;;;;;5.72;3.65;;;;;;;13.46;88.26;101322.97;5137327;28;20034;-70
2023/05/07 09:59:26;;;;;;;5.93;3.38;;;;;;;13.06;89.52;101325.25;5137339;28;20015;-71
2023/05/07 10:01:58;;;;;;;5.65;3.40;;;;;;;13.03;88.82;101328.00;5141267;28;20082;-71
2023/05/07 10:04:30;;;;;;;5.68;3.60;;;;;;;13.09;89.42;101322.53;5142402;28;20030;-72
2023/05/07 10:07:02;;;;;;;5.25;3.30;;;;;;;12.88;90.14;101320.59;5136175;28;20113;-74
2023/05/07 10:09:33;;;;;;;5.40;3.38;;;;;;;13.03;90.60;101318.34;5138539;28;20577;-70
2023/05/07 10:12:05;;;;;;;6.72;3.65;;;;;;;12.79;92.01;101322.66;5141655;28;20050;-72
2023/05/07 10:14:36;;;;;;;6.03;3.60;;;;;;;13.06;90.76;101317.38;5144588;28;20057;-71
2023/05/07 10:17:06;;;;;;;6.10;3.33;;;;;;;13.07;90.13;101317.31;5142499;28;20294;-71
2023/05/07 10:19:37;;;;;;;6.13;3.80;;;;;;;13.20;89.49;101315.16;5138786;28;20035;-70
2023/05/07 10:22:09;;;;;;;6.55;3.67;;;;;;;12.93;91.16;101327.41;5143506;28;20038;-72
2023/05/07 10:24:39;;;;;;;9.57;3.90;;;;;;;12.85;92.13;101330.31;5145446;28;20058;-69
2023/05/07 10:27:14;;;;;;;6.78;3.90;;;;;;;12.68;92.50;101330.88;5141237;28;20448;-71
2023/05/07 10:29:50;;;;;;;7.40;4.03;;;;;;;12.51;93.94;101343.66;5147184;28;20085;-73
2023/05/07 10:32:35;;;;;;;6.78;4.10;;;;;;;12.33;94.04;101330.25;5141384;28;20523;-72
2023/05/07 10:35:11;;;;;;;5.93;3.90;;;;;;;12.50;92.38;101331.44;5146801;28;20104;-72
2023/05/07 10:37:41;;;;;;;5.20;3.42;;;;;;;12.20;93.53;101342.88;5143149;28;20126;-70
2023/05/07 10:40:13;;;;;;;6.30;3.55;;;;;;;12.55;90.94;101328.66;5157358;28;20038;-70
2023/05/07 10:42:54;;;;;;;5.15;3.33;;;;;;;12.43;91.61;101350.06;5160655;28;20367;-69
2023/05/07 10:45:25;;;;;;;5.30;3.10;;;;;;;12.86;93.19;101334.66;5141966;28;20029;-71
2023/05/07 10:48:10;;;;;;;4.55;3.30;;;;;;;13.02;90.70;101334.13;5157069;28;20528;-71
2023/05/07 10:50:42;;;;;;;5.43;3.30;;;;;;;12.95;91.04;101335.25;5143600;28;20532;-71
2023/05/07 10:53:18;;;;;;;5.57;3.10;;;;;;;12.61;91.71;101341.63;5140465;28;20047;-72
2023/05/07 10:55:51;;;;;;;4.25;2.72;;;;;;;12.93;93.09;101334.44;5145519;28;20039;-72
2023/05/07 10:58:23;;;;;;;5.75;3.20;;;;;;;12.75;89.04;101337.63;5146231;28;20038;-69
2023/05/07 11:01:02;;;;;;;7.50;3.17;;;;;;;13.01;92.32;101335.91;5143276;28;20034;-72
2023/05/07 11:03:33;;;;;;;4.13;2.53;;;;;;;13.05;88.52;101328.78;5150193;28;20038;-72
2023/05/07 11:06:15;;;;;;;4.95;2.70;;;;;;;13.03;89.77;101338.50;5144337;28;20492;-72
2023/05/07 11:08:57;;;;;;;5.15;3.10;;;;;;;12.95;89.13;101335.25;5140472;28;20234;-71
2023/05/07 11:11:50;;;;;;;4.03;2.70;;;;;;;12.70;89.06;101352.66;5145185;28;20057;-71
2023/05/07 11:14:42;;;;;;;4.25;3.00;;;;;;;13.24;90.14;101333.34;5145482;28;20042;-72
2023/05/07 11:17:13;;;;;;;4.03;2.45;;;;;;;13.15;88.06;101333.69;5140029;28;20038;-69
2023/05/07 11:19:56;;;;;;;5.13;2.40;;;;;;;13.26;90.15;101335.94;5140965;28;20545;-71
2023/05/07 11:22:39;;;;;;;5.60;3.35;;;;;;;13.44;89.21;101330.88;5141883;28;20497;-72
2023/05/07 11:25:10;;;;;;;3.65;2.58;;;;;;;13.63;90.92;101331.97;5144773;28;20279;-71
2023/05/07 11:27:41;;;;;;;4.35;2.80;;;;;;;13.66;86.36;101338.88;5141252;28;20061;-70
2023/05/07 11:30:18;;;;;;;4.72;2.65;;;;;;;13.44;87.03;101335.28;5153672;28;20049;-72
2023/05/07 11:32:48;;;;;;;4.18;2.78;;;;;;;13.38;87.68;101341.63;5143384;28;20030;-72
2023/05/07 11:35:22;;;;;;;4.60;2.92;;;;;;;13.50;88.21;101340.31;5140707;28;20065;-71
2023/05/07 11:38:00;;;;;;;4.45;3.05;;;;;;;13.53;86.31;101329.69;5144222;28;20030;-71
2023/05/07 11:40:30;;;;;;;4.78;3.10;;;;;;;13.76;87.28;101340.25;5154081;28;20455;-72